Time;durP1;ratioP1;P1;durP2;ratioP2;P2;SDS_P1;SDS_P2;PMS_P1;PMS_P2;Temp;Humidity;BMP_temperature;BMP_pressure;BME280_temperature;BME280_humidity;BME280_pressure;Samples;Min_cycle;Max_cycle;Signal;HPM_P1;HPM_P2
2021/07/15 00:01:51;;;;;;;36.20;18.80;;;18.10;99.90;;;;;;5007766;28;20290;-80
2021/07/15 00:04:18;;;;;;;27.23;17.50;;;18.10;99.90;;;;;;5006113;28;20202;-82
2021/07/15 00:06:45;;;;;;;28.40;17.17;;;18.10;99.90;;;;;;5008330;28;20250;-79
2021/07/15 00:09:13;;;;;;;26.70;16.90;;;18.10;99.90;;;;;;5007115;28;20570;-81
2021/07/15 00:11:45;;;;;;;26.58;17.05;;;18.10;99.90;;;;;;5007712;28;20222;-81
2021/07/15 00:14:13;;;;;;;25.33;16.77;;;18.10;99.90;;;;;;5006794;28;20215;-83
2021/07/15 00:16:40;;;;;;;26.65;15.70;;;18.00;99.90;;;;;;5011329;28;20910;-80
2021/07/15 00:19:09;;;;;;;28.92;17.48;;;18.00;99.90;;;;;;5028688;28;20209;-80
2021/07/15 00:21:36;;;;;;;28.58;18.02;;;18.00;99.90;;;;;;5028496;28;20198;-79
2021/07/15 00:24:05;;;;;;;26.15;16.75;;;18.00;99.90;;;;;;5028032;28;20202;-82
2021/07/15 00:26:31;;;;;;;32.10;17.85;;;18.00;99.90;;;;;;5017194;28;20290;-81
2021/07/15 00:29:00;;;;;;;30.02;16.88;;;18.00;99.90;;;;;;5009064;28;20209;-81
2021/07/15 00:31:27;;;;;;;26.92;16.58;;;18.00;99.90;;;;;;5008012;28;20874;-81
2021/07/15 00:33:54;;;;;;;28.10;17.70;;;18.10;99.90;;;;;;5007506;28;20231;-80
2021/07/15 00:36:21;;;;;;;32.40;18.65;;;18.00;99.90;;;;;;5007796;28;20478;-80
2021/07/15 00:38:48;;;;;;;31.50;16.92;;;18.00;99.90;;;;;;5007564;28;20211;-79
2021/07/15 00:41:15;;;;;;;28.23;17.35;;;17.90;99.90;;;;;;5006180;28;20230;-82
2021/07/15 00:43:42;;;;;;;30.15;17.73;;;18.00;99.90;;;;;;5007407;28;20215;-79
2021/07/15 00:46:10;;;;;;;32.58;17.98;;;18.00;99.90;;;;;;5006628;28;20222;-81
2021/07/15 00:48:37;;;;;;;31.42;17.40;;;18.00;99.90;;;;;;5008047;28;20211;-81
2021/07/15 00:51:06;;;;;;;33.90;17.77;;;17.90;99.90;;;;;;5007500;28;20203;-80
2021/07/15 00:53:33;;;;;;;32.08;16.98;;;17.90;99.90;;;;;;5006955;28;20698;-81
2021/07/15 00:56:00;;;;;;;27.38;16.85;;;18.00;99.90;;;;;;5007796;28;20902;-79
2021/07/15 00:58:27;;;;;;;28.13;16.85;;;17.90;99.90;;;;;;5007094;28;20584;-80
2021/07/15 01:00:54;;;;;;;36.97;18.63;;;17.90;99.90;;;;;;5006494;28;20601;-79
2021/07/15 01:03:23;;;;;;;28.25;17.23;;;18.00;99.90;;;;;;5006106;28;20206;-81
2021/07/15 01:05:51;;;;;;;28.35;17.65;;;17.90;99.90;;;;;;5007503;28;20215;-81
2021/07/15 01:08:19;;;;;;;27.80;16.85;;;18.00;99.90;;;;;;5005005;28;20210;-80
2021/07/15 01:10:48;;;;;;;34.80;18.30;;;18.00;99.90;;;;;;5005576;28;20214;-81
2021/07/15 01:13:24;;;;;;;27.50;16.92;;;18.00;99.90;;;;;;5004591;28;20238;-77
2021/07/15 01:15:59;;;;;;;32.13;17.60;;;17.90;99.90;;;;;;5005208;28;20588;-77
2021/07/15 01:18:42;;;;;;;34.47;16.60;;;18.00;99.90;;;;;;5006040;28;20224;-81
2021/07/15 01:21:56;;;;;;;25.33;15.63;;;18.00;99.90;;;;;;5004885;28;20211;-81
2021/07/15 01:24:50;;;;;;;30.25;15.45;;;18.00;99.90;;;;;;5005492;28;20230;-83
2021/07/15 01:27:47;;;;;;;24.33;15.18;;;18.00;99.90;;;;;;5005340;28;20522;-80
2021/07/15 01:30:18;;;;;;;27.38;15.73;;;18.00;99.90;;;;;;5005504;28;20207;-80
2021/07/15 01:32:55;;;;;;;29.17;16.52;;;17.90;99.90;;;;;;5009419;28;20210;-79
2021/07/15 01:35:26;;;;;;;29.48;15.25;;;17.90;99.90;;;;;;5006397;28;20665;-80
2021/07/15 01:37:56;;;;;;;24.98;15.38;;;17.90;99.90;;;;;;5006948;28;20203;-81
2021/07/15 01:40:32;;;;;;;26.98;16.17;;;17.90;99.90;;;;;;5007086;28;20207;-81
2021/07/15 01:43:02;;;;;;;27.10;15.65;;;17.90;99.90;;;;;;5005715;28;20199;-80
2021/07/15 01:45:32;;;;;;;27.75;15.98;;;17.90;99.90;;;;;;5005277;28;20206;-79
2021/07/15 01:48:00;;;;;;;24.30;16.40;;;17.90;99.90;;;;;;5006166;28;20207;-80
2021/07/15 01:50:28;;;;;;;26.65;16.02;;;17.90;99.90;;;;;;5005989;28;20583;-77
2021/07/15 01:52:55;;;;;;;30.95;15.55;;;17.80;99.90;;;;;;5005029;28;20211;-79
2021/07/15 01:55:22;;;;;;;29.75;16.30;;;17.80;99.90;;;;;;5005167;28;20227;-84
2021/07/15 01:57:53;;;;;;;28.67;15.05;;;17.80;99.90;;;;;;5006066;28;20210;-81
2021/07/15 02:00:20;;;;;;;28.95;15.95;;;17.80;99.90;;;;;;5005738;28;20215;-82
2021/07/15 02:02:50;;;;;;;26.55;15.70;;;17.90;99.90;;;;;;5006246;28;20745;-79
2021/07/15 02:05:18;;;;;;;30.50;16.50;;;17.80;99.90;;;;;;5005020;28;20187;-80
2021/07/15 02:07:46;;;;;;;32.50;16.52;;;17.80;99.90;;;;;;5005857;28;20214;-81
2021/07/15 02:10:19;;;;;;;31.88;15.80;;;17.80;99.90;;;;;;5005032;28;20643;-79
2021/07/15 02:12:47;;;;;;;27.10;15.50;;;17.80;99.90;;;;;;5004877;28;20286;-81
2021/07/15 02:15:14;;;;;;;25.83;16.58;;;17.80;99.90;;;;;;5005248;28;20203;-81
2021/07/15 02:17:43;;;;;;;29.27;16.30;;;17.80;99.90;;;;;;5006251;28;20222;-82
2021/07/15 02:20:15;;;;;;;35.97;17.25;;;17.80;99.90;;;;;;5004979;28;20265;-80
2021/07/15 02:22:43;;;;;;;30.13;16.60;;;17.80;99.90;;;;;;5005508;28;20223;-84
2021/07/15 02:25:11;;;;;;;36.83;16.55;;;17.80;99.90;;;;;;5003183;28;20243;-80
2021/07/15 02:27:40;;;;;;;26.88;16.23;;;17.80;99.90;;;;;;5009305;28;20211;-81
2021/07/15 02:30:10;;;;;;;28.42;16.52;;;17.80;99.90;;;;;;5008974;28;20210;-82
2021/07/15 02:32:38;;;;;;;30.02;17.20;;;17.70;99.90;;;;;;5009631;28;20203;-81
2021/07/15 02:35:09;;;;;;;32.83;16.80;;;17.70;99.90;;;;;;5009100;28;20548;-81
2021/07/15 02:37:40;;;;;;;25.40;17.00;;;17.80;99.90;;;;;;5009397;28;20227;-80
2021/07/15 02:40:09;;;;;;;24.33;16.55;;;17.80;99.90;;;;;;5007469;28;20494;-82
2021/07/15 02:42:36;;;;;;;32.17;17.70;;;17.80;99.90;;;;;;5009876;28;20199;-82
2021/07/15 02:45:06;;;;;;;33.60;18.15;;;17.70;99.90;;;;;;5010036;28;20203;-82
2021/07/15 02:47:33;;;;;;;31.50;16.05;;;17.70;99.90;;;;;;5014039;28;20197;-79
2021/07/15 02:49:59;;;;;;;30.02;16.90;;;17.70;99.90;;;;;;5014604;28;20516;-83
2021/07/15 02:52:27;;;;;;;35.15;16.65;;;17.80;99.90;;;;;;5031299;28;20589;-89
2021/07/15 02:54:55;;;;;;;34.42;16.92;;;17.70;99.90;;;;;;5030158;28;20709;-81
2021/07/15 02:57:26;;;;;;;32.55;16.42;;;17.70;99.90;;;;;;5028227;28;20658;-80
2021/07/15 02:59:57;;;;;;;28.25;16.20;;;17.70;99.90;;;;;;5010212;28;20199;-83
2021/07/15 03:02:27;;;;;;;26.45;15.45;;;17.70;99.90;;;;;;5008623;28;20227;-82
2021/07/15 03:05:00;;;;;;;26.77;15.15;;;17.70;99.90;;;;;;5012856;28;20724;-83
2021/07/15 03:07:30;;;;;;;31.13;14.80;;;17.70;99.90;;;;;;5027528;28;20207;-82
2021/07/15 03:09:59;;;;;;;33.97;15.50;;;17.70;99.90;;;;;;5028326;28;20206;-82
2021/07/15 03:12:31;;;;;;;38.28;15.95;;;17.70;99.90;;;;;;5028321;28;20203;-81
2021/07/15 03:14:59;;;;;;;28.30;16.25;;;17.70;99.90;;;;;;5027410;28;20226;-79
2021/07/15 03:17:28;;;;;;;27.88;16.55;;;17.60;99.90;;;;;;5028616;28;20214;-82
2021/07/15 03:19:57;;;;;;;29.98;15.48;;;17.60;99.90;;;;;;5022255;28;20213;-82
2021/07/15 03:22:27;;;;;;;34.55;16.55;;;17.60;99.90;;;;;;5009200;28;20499;-84
2021/07/15 03:24:59;;;;;;;26.38;15.60;;;17.60;99.90;;;;;;5009948;28;20242;-82
2021/07/15 03:27:28;;;;;;;28.40;14.98;;;17.60;99.90;;;;;;5009697;28;20191;-80
2021/07/15 03:29:58;;;;;;;29.98;15.35;;;17.70;99.90;;;;;;5008930;28;20218;-85
2021/07/15 03:32:26;;;;;;;25.55;14.82;;;17.70;99.90;;;;;;5009800;28;20199;-81
2021/07/15 03:34:54;;;;;;;30.83;16.35;;;17.60;99.90;;;;;;5010252;28;20219;-80
2021/07/15 03:37:21;;;;;;;26.25;14.63;;;17.60;99.90;;;;;;5008475;28;20616;-83
2021/07/15 03:39:51;;;;;;;23.23;14.65;;;17.60;99.90;;;;;;5009166;28;20207;-83
2021/07/15 03:42:21;;;;;;;34.15;16.23;;;17.60;99.90;;;;;;5018099;28;20669;-83
2021/07/15 03:44:49;;;;;;;32.00;15.45;;;17.60;99.90;;;;;;5036872;23;20257;-79
2021/07/15 03:47:17;;;;;;;31.27;16.83;;;17.60;99.90;;;;;;5026421;28;20194;-82
2021/07/15 03:49:48;;;;;;;31.38;15.40;;;17.60;99.90;;;;;;5008319;28;20210;-82
2021/07/15 03:52:18;;;;;;;32.38;16.42;;;17.60;99.90;;;;;;5008807;28;20289;-83
2021/07/15 03:54:46;;;;;;;27.73;13.80;;;17.60;99.90;;;;;;5009120;28;20234;-82
2021/07/15 03:57:16;;;;;;;24.92;13.48;;;17.70;99.90;;;;;;5018798;28;20215;-82
2021/07/15 03:59:47;;;;;;;27.65;13.65;;;17.70;99.90;;;;;;5028142;28;20325;-83
2021/07/15 04:02:18;;;;;;;34.63;15.00;;;17.70;99.90;;;;;;5037290;28;20818;-83
2021/07/15 04:04:48;;;;;;;31.10;15.20;;;17.70;99.90;;;;;;5030144;28;20202;-82
2021/07/15 04:07:17;;;;;;;23.85;13.10;;;17.70;99.90;;;;;;5032219;28;20294;-82
2021/07/15 04:09:49;;;;;;;26.30;12.77;;;17.70;99.90;;;;;;5029589;28;20625;-82
2021/07/15 04:12:21;;;;;;;28.38;13.20;;;17.70;99.90;;;;;;5027271;28;20268;-83
2021/07/15 04:15:04;;;;;;;24.90;12.80;;;17.70;99.90;;;;;;5031507;28;20650;-82
2021/07/15 04:17:34;;;;;;;30.58;12.23;;;17.70;99.90;;;;;;5027850;28;20205;-84
2021/07/15 04:20:04;;;;;;;26.95;12.88;;;17.70;99.90;;;;;;5045956;28;20214;-81
2021/07/15 04:22:32;;;;;;;20.70;11.65;;;17.80;99.90;;;;;;5048160;28;20202;-83
2021/07/15 04:25:00;;;;;;;27.35;12.65;;;17.80;99.90;;;;;;5028759;28;20209;-84
2021/07/15 04:27:28;;;;;;;24.27;12.10;;;17.80;99.90;;;;;;5028905;28;20206;-80
2021/07/15 04:30:01;;;;;;;28.20;12.10;;;17.80;99.90;;;;;;5028892;28;20214;-82
2021/07/15 04:32:31;;;;;;;35.75;13.23;;;17.80;99.90;;;;;;5033619;28;20221;-82
2021/07/15 04:34:59;;;;;;;28.48;11.85;;;17.80;99.90;;;;;;5048214;28;20229;-82
2021/07/15 04:37:26;;;;;;;31.42;11.88;;;17.80;99.90;;;;;;5047567;28;20198;-80
2021/07/15 04:39:55;;;;;;;27.30;11.80;;;17.80;99.90;;;;;;5033564;28;20211;-82
2021/07/15 04:42:24;;;;;;;29.83;10.15;;;17.80;99.90;;;;;;5028410;28;20213;-83
2021/07/15 04:44:51;;;;;;;25.17;10.65;;;17.80;99.90;;;;;;5027763;28;20786;-80
2021/07/15 04:47:22;;;;;;;22.27;9.75;;;17.80;99.90;;;;;;5027527;28;20606;-81
2021/07/15 04:49:49;;;;;;;16.17;9.65;;;17.80;99.90;;;;;;5028149;28;20199;-81
2021/07/15 04:52:18;;;;;;;16.65;9.32;;;17.80;99.90;;;;;;5027160;28;20206;-80
2021/07/15 04:54:47;;;;;;;20.20;9.90;;;17.80;99.90;;;;;;5027205;28;20533;-80
2021/07/15 04:57:14;;;;;;;26.73;10.05;;;17.90;99.90;;;;;;5026513;28;20206;-80
2021/07/15 04:59:41;;;;;;;26.60;10.27;;;17.90;99.90;;;;;;5026923;28;20681;-83
2021/07/15 05:02:08;;;;;;;19.77;10.05;;;17.90;99.90;;;;;;5026268;28;20260;-79
2021/07/15 05:04:37;;;;;;;22.10;10.57;;;17.90;99.90;;;;;;5027425;28;20601;-82
2021/07/15 05:07:04;;;;;;;20.73;10.13;;;17.90;99.90;;;;;;5026501;28;20215;-84
2021/07/15 05:09:31;;;;;;;24.42;11.32;;;17.90;99.90;;;;;;5026127;28;20205;-83
2021/07/15 05:11:58;;;;;;;21.73;10.60;;;17.90;99.90;;;;;;5026040;28;20206;-82
2021/07/15 05:14:25;;;;;;;27.73;11.95;;;17.90;99.90;;;;;;5024952;28;20221;-78
2021/07/15 05:16:52;;;;;;;22.92;11.02;;;17.90;99.90;;;;;;5026247;28;20210;-81
2021/07/15 05:19:18;;;;;;;27.52;10.15;;;17.90;99.90;;;;;;5028112;28;20203;-79
2021/07/15 05:21:47;;;;;;;17.67;9.60;;;17.90;99.90;;;;;;5043456;28;20579;-82
2021/07/15 05:24:14;;;;;;;21.67;10.95;;;17.90;99.90;;;;;;5030428;28;20202;-80
2021/07/15 05:26:40;;;;;;;22.85;10.77;;;17.90;99.90;;;;;;5046644;28;20228;-83
2021/07/15 05:29:07;;;;;;;23.60;10.82;;;18.00;99.90;;;;;;5050180;28;20208;-81
2021/07/15 05:31:34;;;;;;;25.17;11.57;;;18.00;99.90;;;;;;5047944;28;20221;-80
2021/07/15 05:34:01;;;;;;;22.40;10.40;;;18.00;99.90;;;;;;5046509;28;20602;-80
2021/07/15 05:36:28;;;;;;;20.25;10.38;;;18.00;99.90;;;;;;5044812;28;20221;-79
2021/07/15 05:38:57;;;;;;;21.60;10.65;;;18.00;99.90;;;;;;5045581;28;20611;-79
2021/07/15 05:41:24;;;;;;;23.27;10.65;;;18.00;99.90;;;;;;5044576;28;20584;-81
2021/07/15 05:43:50;;;;;;;30.05;10.15;;;18.00;99.90;;;;;;5034642;28;20242;-78
2021/07/15 05:46:17;;;;;;;24.58;10.85;;;18.00;99.90;;;;;;5041968;28;20225;-84
2021/07/15 05:48:44;;;;;;;18.83;10.35;;;18.00;99.90;;;;;;5045621;28;20297;-81
2021/07/15 05:51:11;;;;;;;20.63;8.95;;;18.00;99.90;;;;;;5025594;28;20244;-80
2021/07/15 05:53:38;;;;;;;25.05;10.25;;;18.10;99.90;;;;;;5025714;28;20202;-80
2021/07/15 05:56:06;;;;;;;19.58;9.90;;;18.00;99.90;;;;;;5023661;28;20237;-81
2021/07/15 05:58:33;;;;;;;23.55;10.52;;;18.10;99.90;;;;;;5025219;28;20206;-82
2021/07/15 06:01:00;;;;;;;17.35;9.55;;;18.10;99.90;;;;;;5024789;28;20530;-78
2021/07/15 06:03:26;;;;;;;21.02;9.75;;;18.10;99.90;;;;;;5025682;28;20785;-83
2021/07/15 06:05:53;;;;;;;17.55;10.05;;;18.20;99.90;;;;;;5026375;28;20206;-80
2021/07/15 06:08:20;;;;;;;22.58;10.20;;;18.10;99.90;;;;;;5025480;28;20206;-81
2021/07/15 06:10:47;;;;;;;16.15;9.52;;;18.10;99.90;;;;;;5025571;28;20192;-78
2021/07/15 06:13:15;;;;;;;20.85;10.68;;;18.10;99.90;;;;;;5025208;28;20198;-80
2021/07/15 06:15:42;;;;;;;21.65;10.93;;;18.10;99.90;;;;;;5025343;28;20720;-82
2021/07/15 06:18:09;;;;;;;19.50;10.63;;;18.10;99.90;;;;;;5023832;28;20202;-83
2021/07/15 06:20:36;;;;;;;21.92;10.98;;;18.10;99.90;;;;;;5026879;28;20206;-80
2021/07/15 06:23:03;;;;;;;25.98;10.10;;;18.10;99.90;;;;;;5044642;28;20228;-81
2021/07/15 06:25:30;;;;;;;16.60;10.38;;;18.10;99.90;;;;;;5034761;28;20868;-81
2021/07/15 06:27:57;;;;;;;20.10;11.05;;;18.00;99.90;;;;;;5025424;28;20206;-80
2021/07/15 06:30:25;;;;;;;21.17;10.68;;;18.00;99.90;;;;;;5025024;28;20500;-79
2021/07/15 06:32:54;;;;;;;24.63;9.68;;;18.10;99.90;;;;;;5024927;28;20706;-81
2021/07/15 06:35:23;;;;;;;18.77;9.50;;;18.10;99.90;;;;;;5024721;28;20234;-82
2021/07/15 06:37:52;;;;;;;16.10;9.43;;;18.10;99.90;;;;;;5026149;28;20256;-81
2021/07/15 06:40:20;;;;;;;16.05;9.10;;;18.10;99.90;;;;;;5041856;28;20209;-81
2021/07/15 06:42:48;;;;;;;18.30;9.55;;;18.10;99.90;;;;;;5029598;28;20525;-81
2021/07/15 06:45:16;;;;;;;16.75;8.98;;;18.10;99.90;;;;;;5028299;28;20654;-80
2021/07/15 06:47:45;;;;;;;21.60;8.95;;;18.20;99.90;;;;;;5025850;28;20210;-81
2021/07/15 06:50:14;;;;;;;18.70;8.40;;;18.30;99.90;;;;;;5025315;28;20210;-79
2021/07/15 06:52:41;;;;;;;16.00;8.30;;;18.50;99.90;;;;;;5024598;28;20238;-79
2021/07/15 06:55:09;;;;;;;17.00;9.05;;;18.60;99.90;;;;;;5024771;28;20305;-83
2021/07/15 06:57:36;;;;;;;13.85;9.25;;;18.70;99.90;;;;;;5025036;28;20206;-80
2021/07/15 07:00:07;;;;;;;18.75;8.30;;;18.80;99.90;;;;;;5023697;28;20595;-80
2021/07/15 07:02:37;;;;;;;19.80;9.13;;;18.80;99.90;;;;;;5024783;28;20214;-79
2021/07/15 07:05:07;;;;;;;20.80;8.55;;;18.90;99.90;;;;;;5024470;28;20604;-82
2021/07/15 07:07:34;;;;;;;16.02;8.40;;;18.90;99.90;;;;;;5024243;28;20214;-79
2021/07/15 07:10:01;;;;;;;23.48;9.07;;;18.80;99.90;;;;;;5024646;28;20207;-80
2021/07/15 07:12:28;;;;;;;16.17;7.90;;;18.90;99.90;;;;;;5026707;28;20207;-79
2021/07/15 07:14:54;;;;;;;15.90;8.60;;;19.00;99.90;;;;;;5027379;28;20642;-80
2021/07/15 07:17:21;;;;;;;19.70;7.97;;;19.10;99.90;;;;;;5028065;28;20207;-77
2021/07/15 07:30:23;;;;;;;17.55;8.60;;;19.60;99.90;;;;;;4859331;28;20242;-79
2021/07/15 07:32:50;;;;;;;18.20;8.05;;;19.60;99.90;;;;;;5031608;28;20485;-76
2021/07/15 07:35:17;;;;;;;20.45;8.40;;;19.60;99.90;;;;;;5026678;28;21003;-80
2021/07/15 07:37:45;;;;;;;16.42;7.78;;;19.70;99.90;;;;;;5027362;28;20205;-79
2021/07/15 07:40:13;;;;;;;19.33;8.75;;;19.80;99.90;;;;;;5027089;28;20210;-81
2021/07/15 07:42:40;;;;;;;18.40;8.15;;;19.80;99.90;;;;;;5027085;28;20210;-80
2021/07/15 07:45:09;;;;;;;17.90;8.52;;;19.80;99.90;;;;;;5026258;28;20980;-81
2021/07/15 07:47:38;;;;;;;13.93;7.50;;;19.90;99.90;;;;;;5046561;28;20217;-80
2021/07/15 07:50:07;;;;;;;13.95;7.85;;;20.00;99.90;;;;;;5045464;28;20194;-80
2021/07/15 07:52:34;;;;;;;17.33;7.97;;;20.20;99.90;;;;;;5027356;28;20216;-81
2021/07/15 07:55:01;;;;;;;16.15;8.07;;;20.30;99.90;;;;;;5026636;28;20222;-78
2021/07/15 07:57:28;;;;;;;16.33;7.68;;;20.30;99.90;;;;;;5026812;28;20209;-78
2021/07/15 07:59:56;;;;;;;12.48;7.63;;;20.30;99.90;;;;;;5040152;28;20222;-81
2021/07/15 08:02:24;;;;;;;12.70;6.78;;;20.40;99.90;;;;;;5028862;28;20214;-82
2021/07/15 08:04:52;;;;;;;14.48;6.63;;;20.40;99.90;;;;;;5028457;28;20202;-80
2021/07/15 08:07:19;;;;;;;13.32;6.85;;;20.60;99.90;;;;;;5027081;28;20206;-82
2021/07/15 08:09:46;;;;;;;13.90;7.07;;;20.80;99.90;;;;;;5026959;28;20194;-82
2021/07/15 08:12:15;;;;;;;19.23;7.45;;;20.80;99.90;;;;;;5026630;28;20313;-82
2021/07/15 08:14:42;;;;;;;13.68;6.80;;;20.80;99.90;;;;;;5027410;28;20233;-82
2021/07/15 08:17:09;;;;;;;12.15;7.40;;;20.60;99.90;;;;;;5026012;28;20206;-80
2021/07/15 08:19:36;;;;;;;18.33;7.80;;;20.60;99.90;;;;;;5027978;28;20606;-82
2021/07/15 08:22:05;;;;;;;13.77;7.65;;;20.50;99.90;;;;;;5026941;28;20217;-80
2021/07/15 08:24:31;;;;;;;13.90;7.32;;;20.60;99.90;;;;;;5024787;28;20653;-80
2021/07/15 08:26:58;;;;;;;24.73;8.80;;;20.60;99.90;;;;;;5026387;28;20206;-79
2021/07/15 08:29:25;;;;;;;17.08;7.50;;;20.60;99.90;;;;;;5027091;28;20218;-84
2021/07/15 08:31:52;;;;;;;17.88;7.88;;;20.60;99.90;;;;;;5027108;28;20207;-81
2021/07/15 08:34:19;;;;;;;13.57;7.55;;;20.60;99.90;;;;;;5025736;28;20206;-81
2021/07/15 08:36:46;;;;;;;14.90;7.65;;;20.70;99.90;;;;;;5026480;28;20226;-78
2021/07/15 08:39:14;;;;;;;16.95;7.93;;;20.80;99.90;;;;;;5027263;28;20206;-81
2021/07/15 08:41:43;;;;;;;16.83;7.72;;;20.80;99.90;;;;;;5027356;28;20203;-80
2021/07/15 08:44:10;;;;;;;13.90;7.38;;;20.70;99.90;;;;;;5027541;28;20240;-84
2021/07/15 08:46:40;;;;;;;14.75;8.35;;;20.60;99.90;;;;;;5027767;28;20198;-83
2021/07/15 08:49:09;;;;;;;12.45;6.85;;;20.70;99.90;;;;;;5026836;28;20233;-79
2021/07/15 08:51:37;;;;;;;16.75;7.63;;;20.70;99.90;;;;;;5025872;28;20213;-81
2021/07/15 08:54:04;;;;;;;14.40;8.07;;;20.80;99.90;;;;;;5024812;28;20206;-77
2021/07/15 08:56:38;;;;;;;14.98;7.38;;;20.80;99.90;;;;;;5024988;28;20226;-79
2021/07/15 08:59:06;;;;;;;13.60;7.07;;;20.80;99.90;;;;;;5023523;28;20250;-83
2021/07/15 09:01:35;;;;;;;11.65;6.82;;;20.80;99.90;;;;;;5025677;28;20201;-79
2021/07/15 09:04:03;;;;;;;15.25;7.38;;;20.90;99.90;;;;;;5025026;28;20210;-80
2021/07/15 09:06:30;;;;;;;12.18;7.32;;;21.00;99.90;;;;;;5024177;28;20195;-78
2021/07/15 09:08:57;;;;;;;12.80;7.28;;;21.10;99.90;;;;;;5025764;28;20205;-78
2021/07/15 09:11:24;;;;;;;16.55;8.13;;;21.10;99.90;;;;;;5029424;28;20209;-79
2021/07/15 09:13:52;;;;;;;21.00;8.50;;;21.00;99.90;;;;;;5044491;28;20210;-78
2021/07/15 09:16:20;;;;;;;13.38;7.60;;;21.00;99.90;;;;;;5027203;28;20227;-78
2021/07/15 09:18:58;;;;;;;13.93;7.43;;;20.90;99.90;;;;;;5025812;28;20219;-80
2021/07/15 09:21:26;;;;;;;11.50;7.13;;;20.90;99.90;;;;;;5025967;28;20221;-82
2021/07/15 09:23:53;;;;;;;14.32;7.20;;;20.90;99.90;;;;;;5025999;28;20202;-79
2021/07/15 09:26:20;;;;;;;9.95;7.05;;;21.00;99.90;;;;;;5025272;28;20203;-79
2021/07/15 09:28:47;;;;;;;17.60;7.38;;;21.10;99.90;;;;;;5025165;28;20218;-80
2021/07/15 09:31:21;;;;;;;15.93;8.00;;;21.30;99.90;;;;;;5025112;28;20321;-79
2021/07/15 09:33:49;;;;;;;14.95;8.00;;;21.40;99.90;;;;;;5031179;23;20246;-78
2021/07/15 09:36:17;;;;;;;17.42;7.60;;;21.30;99.90;;;;;;5012585;28;20234;-80
2021/07/15 09:38:46;;;;;;;13.35;8.25;;;21.20;99.90;;;;;;5006931;28;20199;-78
2021/07/15 09:41:17;;;;;;;20.10;8.55;;;21.00;99.90;;;;;;5004472;28;20219;-82
2021/07/15 09:43:45;;;;;;;13.35;7.70;;;20.90;99.90;;;;;;5006311;28;20203;-81
2021/07/15 09:46:22;;;;;;;16.00;7.97;;;20.90;99.90;;;;;;5005686;28;20223;-79
2021/07/15 09:48:51;;;;;;;22.77;8.00;;;20.90;99.90;;;;;;5005229;28;20191;-80
2021/07/15 09:51:19;;;;;;;18.33;8.10;;;20.90;99.90;;;;;;5005573;28;20271;-81
2021/07/15 09:53:47;;;;;;;16.25;7.88;;;21.00;99.90;;;;;;5006079;28;20415;-81
2021/07/15 09:56:16;;;;;;;17.85;8.07;;;20.90;99.90;;;;;;5005020;28;20658;-81
2021/07/15 09:58:45;;;;;;;15.07;7.78;;;20.70;99.90;;;;;;5005650;28;20239;-81
2021/07/15 10:01:13;;;;;;;16.38;8.57;;;20.70;99.90;;;;;;5004818;28;20851;-81
2021/07/15 10:03:42;;;;;;;16.33;8.93;;;20.60;99.90;;;;;;5005605;28;20283;-81
2021/07/15 10:06:11;;;;;;;20.48;8.30;;;20.60;99.90;;;;;;5004941;28;20211;-81
2021/07/15 10:08:40;;;;;;;15.68;7.85;;;20.70;99.90;;;;;;5006079;28;20200;-80
2021/07/15 10:11:22;;;;;;;15.40;7.85;;;21.00;99.90;;;;;;5005993;28;20207;-80
2021/07/15 10:14:00;;;;;;;18.75;8.13;;;21.20;99.90;;;;;;5006443;28;20207;-79
2021/07/15 10:16:29;;;;;;;17.90;7.85;;;21.30;99.90;;;;;;5005809;28;20541;-80
2021/07/15 10:18:58;;;;;;;18.58;7.72;;;21.40;99.90;;;;;;5004405;28;20223;-85
2021/07/15 10:21:27;;;;;;;16.33;8.05;;;21.40;99.90;;;;;;5011063;28;20203;-79
2021/07/15 10:23:54;;;;;;;17.20;8.13;;;21.30;99.90;;;;;;5023809;28;20210;-80
2021/07/15 10:26:22;;;;;;;16.77;8.32;;;21.30;99.90;;;;;;5024106;28;20203;-79
2021/07/15 10:28:51;;;;;;;13.60;7.32;;;21.20;99.90;;;;;;5016797;28;20214;-77
2021/07/15 10:31:20;;;;;;;16.15;7.18;;;21.20;99.90;;;;;;5003581;28;20218;-77
2021/07/15 10:33:47;;;;;;;16.65;7.70;;;21.20;99.90;;;;;;5006045;28;20246;-85
2021/07/15 10:36:16;;;;;;;13.00;7.18;;;21.30;99.90;;;;;;5005775;28;20223;-79
2021/07/15 10:38:44;;;;;;;12.93;7.13;;;21.30;99.90;;;;;;5005586;28;20224;-79
2021/07/15 10:41:13;;;;;;;11.00;6.05;;;21.30;99.90;;;;;;5004759;28;20212;-82
2021/07/15 10:43:41;;;;;;;12.90;6.97;;;21.40;99.90;;;;;;5005242;28;20297;-79
2021/07/15 10:46:08;;;;;;;11.25;6.63;;;21.40;99.90;;;;;;5003705;28;20217;-80
2021/07/15 10:48:38;;;;;;;10.85;6.60;;;21.30;99.90;;;;;;5008809;28;20226;-80
2021/07/15 10:51:06;;;;;;;14.95;6.97;;;21.50;99.90;;;;;;5008531;28;20210;-82
2021/07/15 10:53:40;;;;;;;15.40;6.70;;;21.60;99.90;;;;;;5009529;28;20520;-80
2021/07/15 10:56:07;;;;;;;12.98;6.60;;;21.70;99.90;;;;;;5008604;28;20242;-81
2021/07/15 10:58:45;;;;;;;12.65;6.85;;;21.80;99.90;;;;;;5008448;28;20291;-79
2021/07/15 11:01:13;;;;;;;10.85;5.97;;;21.80;99.90;;;;;;5006408;28;20203;-83
2021/07/15 11:03:41;;;;;;;15.18;6.90;;;21.90;99.90;;;;;;5009026;28;20206;-78
2021/07/15 11:06:08;;;;;;;11.75;6.35;;;21.90;99.90;;;;;;5006924;28;20333;-79
2021/07/15 11:09:00;;;;;;;15.75;7.53;;;22.00;99.90;;;;;;5007730;28;20203;-81
2021/07/15 11:11:38;;;;;;;12.73;6.57;;;22.10;99.90;;;;;;5004074;28;20607;-79
2021/07/15 11:14:06;;;;;;;15.77;6.40;;;22.00;99.90;;;;;;5009202;28;20217;-79
2021/07/15 11:16:50;;;;;;;11.88;5.88;;;21.90;99.90;;;;;;5008694;28;20222;-80
2021/07/15 11:19:55;;;;;;;13.20;6.30;;;22.10;99.90;;;;;;5004499;28;20219;-79
2021/07/15 11:22:48;;;;;;;14.45;5.90;;;22.20;99.90;;;;;;5007954;28;20237;-83
2021/07/15 11:25:19;;;;;;;11.05;6.25;;;22.30;99.90;;;;;;5007075;28;20258;-80
2021/07/15 11:27:49;;;;;;;16.45;6.15;;;22.40;99.90;;;;;;5026513;28;20221;-79
2021/07/15 11:30:40;;;;;;;13.43;6.60;;;22.50;99.90;;;;;;5020067;28;20294;-80
2021/07/15 11:33:45;;;;;;;12.63;6.53;;;22.50;99.90;;;;;;5007593;28;20330;-80
2021/07/15 11:36:26;;;;;;;11.25;5.93;;;22.50;99.90;;;;;;5005293;28;20234;-78
2021/07/15 11:38:58;;;;;;;14.00;6.18;;;22.40;99.90;;;;;;5008142;28;20507;-79
2021/07/15 11:41:43;;;;;;;13.55;5.93;;;22.50;99.90;;;;;;5008147;28;20203;-80
2021/07/15 11:44:12;;;;;;;15.20;6.22;;;22.50;99.90;;;;;;5007597;28;20255;-81
2021/07/15 11:46:39;;;;;;;13.02;5.57;;;22.50;99.90;;;;;;5008480;28;20787;-81
2021/07/15 11:49:19;;;;;;;15.57;6.28;;;22.40;99.90;;;;;;5008640;28;20211;-79
2021/07/15 11:51:58;;;;;;;12.05;6.25;;;22.50;99.90;;;;;;5008438;28;20822;-80
2021/07/15 11:54:44;;;;;;;12.70;6.30;;;22.30;99.90;;;;;;5007717;28;20223;-79
2021/07/15 11:57:27;;;;;;;14.30;6.25;;;22.40;99.90;;;;;;5008921;28;20234;-80
2021/07/15 12:00:16;;;;;;;16.48;6.43;;;22.10;99.90;;;;;;5009552;28;20199;-79
2021/07/15 12:02:46;;;;;;;11.13;6.28;;;22.10;99.90;;;;;;5008657;28;20215;-80
2021/07/15 12:05:20;;;;;;;12.27;5.53;;;21.90;99.90;;;;;;5008658;28;20207;-83
2021/07/15 12:07:49;;;;;;;13.25;5.93;;;21.90;99.90;;;;;;5029150;28;20195;-82
2021/07/15 12:10:25;;;;;;;17.73;6.10;;;21.90;99.90;;;;;;5027449;28;20206;-81
2021/07/15 12:12:58;;;;;;;14.60;5.70;;;21.80;99.90;;;;;;5010695;28;20199;-82
2021/07/15 12:15:27;;;;;;;11.82;5.63;;;21.90;99.90;;;;;;5006198;28;20258;-82
2021/07/15 12:17:56;;;;;;;13.40;5.32;;;21.90;99.90;;;;;;5006327;28;20734;-79
2021/07/15 12:20:26;;;;;;;11.32;6.25;;;21.90;99.90;;;;;;5026103;28;20206;-80
2021/07/15 12:22:56;;;;;;;16.35;6.50;;;22.00;99.90;;;;;;5016057;28;20212;-79
2021/07/15 12:25:27;;;;;;;18.67;6.63;;;22.00;99.90;;;;;;5007088;28;20207;-79
2021/07/15 12:27:57;;;;;;;11.45;5.55;;;22.10;99.90;;;;;;5007598;28;20214;-80
2021/07/15 12:30:37;;;;;;;10.45;5.65;;;22.10;99.90;;;;;;5006428;28;20207;-80
2021/07/15 12:33:04;;;;;;;16.65;5.82;;;22.20;99.90;;;;;;5026191;28;20312;-85
2021/07/15 12:35:34;;;;;;;12.23;5.85;;;22.40;99.90;;;;;;5026592;28;20225;-81
2021/07/15 12:38:18;;;;;;;10.55;5.20;;;22.50;99.90;;;;;;5025335;28;20230;-80
2021/07/15 12:40:46;;;;;;;10.88;5.05;;;22.60;99.90;;;;;;5006450;28;20221;-81
2021/07/15 12:43:21;;;;;;;10.60;5.85;;;22.50;99.90;;;;;;5006915;28;20207;-79
2021/07/15 12:45:48;;;;;;;12.30;5.60;;;22.50;99.90;;;;;;5006037;28;20317;-81
2021/07/15 12:48:16;;;;;;;11.32;5.35;;;22.40;99.90;;;;;;5006063;28;20243;-79
2021/07/15 12:50:44;;;;;;;12.88;5.18;;;22.60;99.90;;;;;;5006247;28;20474;-82
2021/07/15 12:53:20;;;;;;;16.77;6.10;;;22.60;99.90;;;;;;5005585;28;20226;-83
2021/07/15 12:55:48;;;;;;;13.70;5.28;;;22.50;99.90;;;;;;5006445;28;20231;-78
2021/07/15 12:58:15;;;;;;;13.57;5.95;;;22.70;99.90;;;;;;5005013;28;20522;-78